DKH1156 RKSI-ZSWX
Flight info
| Callsign | DKH1156 |
|---|---|
| Flight time | N/A |
| Altitude | 32000 |
| Route | BOPTA Z51 BEDES Y711 PONIK A593 LAMEN/K0850F320 A593 AKARA/K0850S0975 A593 PUD A599 JTN |
| Aircraft | A321/M-SDE3FGHIRWY/LB1 |
Departure
| Time | 2026-05-05 11:29 |
|---|---|
| Airport | Incheon International Airport (RKSI) |
Arrival
| Time | N/A |
|---|---|
| Airport | Sunan Shuofang International Airport (ZSWX) |
| Time | Latitude | Longitude | Altitude | Speed | Heading |
|---|---|---|---|---|---|
| 2026-05-05 11:12 | 37.46787 | 126.42846 | 32 ft | 0 kts | 52° |
| 2026-05-05 11:21 | 37.46777 | 126.42830 | 30 ft | 4 kts | 52° |
| 2026-05-05 11:21 | 37.46760 | 126.42803 | 31 ft | 4 kts | 52° |
| 2026-05-05 11:21 | 37.46746 | 126.42779 | 32 ft | 4 kts | 50° |
| 2026-05-05 11:22 | 37.46728 | 126.42762 | 31 ft | 4 kts | 0° |
| 2026-05-05 11:22 | 37.46704 | 126.42771 | 33 ft | 4 kts | 324° |
| 2026-05-05 11:22 | 37.46696 | 126.42778 | 30 ft | 1 kts | 323° |
| 2026-05-05 11:24 | 37.46713 | 126.42763 | 31 ft | 5 kts | 324° |
| 2026-05-05 11:24 | 37.46753 | 126.42722 | 31 ft | 8 kts | 319° |
| 2026-05-05 11:25 | 37.46802 | 126.42665 | 32 ft | 11 kts | 317° |
| 2026-05-05 11:25 | 37.46870 | 126.42587 | 33 ft | 15 kts | 317° |
| 2026-05-05 11:25 | 37.46955 | 126.42501 | 33 ft | 17 kts | 324° |
| 2026-05-05 11:25 | 37.47041 | 126.42424 | 33 ft | 15 kts | 324° |
| 2026-05-05 11:26 | 37.47054 | 126.42357 | 33 ft | 9 kts | 242° |
| 2026-05-05 11:26 | 37.47011 | 126.42279 | 33 ft | 12 kts | 239° |
| 2026-05-05 11:26 | 37.47046 | 126.42185 | 32 ft | 16 kts | 324° |
| 2026-05-05 11:26 | 37.47141 | 126.42101 | 33 ft | 17 kts | 324° |
| 2026-05-05 11:27 | 37.47241 | 126.42012 | 33 ft | 18 kts | 325° |
| 2026-05-05 11:27 | 37.47336 | 126.41927 | 32 ft | 17 kts | 324° |
| 2026-05-05 11:27 | 37.47409 | 126.41840 | 33 ft | 14 kts | 280° |
| 2026-05-05 11:27 | 37.47361 | 126.41734 | 33 ft | 15 kts | 234° |
| 2026-05-05 11:28 | 37.47301 | 126.41629 | 33 ft | 14 kts | 234° |
| 2026-05-05 11:28 | 37.47241 | 126.41595 | 33 ft | 11 kts | 158° |
| 2026-05-05 11:28 | 37.47184 | 126.41644 | 33 ft | 9 kts | 144° |
| 2026-05-05 11:28 | 37.47065 | 126.41750 | 33 ft | 52 kts | 145° |
| 2026-05-05 11:29 | 37.46559 | 126.42202 | 33 ft | 124 kts | 144° |
| 2026-05-05 11:29 | 37.45700 | 126.42975 | 84 ft | 173 kts | 147° |
| 2026-05-05 11:29 | 37.44695 | 126.43824 | 744 ft | 174 kts | 151° |
| 2026-05-05 11:29 | 37.43657 | 126.44607 | 1556 ft | 173 kts | 153° |
| 2026-05-05 11:30 | 37.42593 | 126.45400 | 2177 ft | 186 kts | 154° |
| 2026-05-05 11:30 | 37.41414 | 126.46280 | 2438 ft | 209 kts | 153° |
| 2026-05-05 11:30 | 37.40086 | 126.47281 | 2716 ft | 236 kts | 152° |
| 2026-05-05 11:30 | 37.38606 | 126.48363 | 3202 ft | 253 kts | 159° |
| 2026-05-05 11:31 | 37.36905 | 126.49025 | 3918 ft | 259 kts | 167° |
| 2026-05-05 11:31 | 37.35141 | 126.49619 | 4707 ft | 265 kts | 167° |
| 2026-05-05 11:31 | 37.33339 | 126.50219 | 5469 ft | 271 kts | 167° |
| 2026-05-05 11:31 | 37.31503 | 126.50834 | 6300 ft | 275 kts | 167° |
| 2026-05-05 11:32 | 37.29645 | 126.51458 | 7078 ft | 278 kts | 167° |
| 2026-05-05 11:32 | 37.27786 | 126.52178 | 7834 ft | 283 kts | 159° |
| 2026-05-05 11:32 | 37.26022 | 126.53328 | 8613 ft | 287 kts | 153° |
| 2026-05-05 11:32 | 37.24259 | 126.54533 | 9403 ft | 291 kts | 153° |
| 2026-05-05 11:33 | 37.22494 | 126.55739 | 10149 ft | 295 kts | 153° |
| 2026-05-05 11:33 | 37.20621 | 126.57010 | 10419 ft | 318 kts | 153° |
| 2026-05-05 11:33 | 37.18600 | 126.58370 | 10597 ft | 341 kts | 153° |
| 2026-05-05 11:33 | 37.16434 | 126.59823 | 10724 ft | 364 kts | 153° |
| 2026-05-05 11:34 | 37.14087 | 126.61225 | 10853 ft | 384 kts | 160° |
| 2026-05-05 11:34 | 37.11481 | 126.62143 | 11231 ft | 393 kts | 171° |
| 2026-05-05 11:34 | 37.08740 | 126.62477 | 11839 ft | 397 kts | 180° |
| 2026-05-05 11:34 | 37.05964 | 126.62446 | 12503 ft | 401 kts | 181° |
| 2026-05-05 11:35 | 37.03161 | 126.62407 | 13158 ft | 405 kts | 181° |
| 2026-05-05 11:35 | 37.00328 | 126.62368 | 13801 ft | 410 kts | 180° |
| 2026-05-05 11:35 | 36.97459 | 126.62335 | 14392 ft | 414 kts | 180° |
| 2026-05-05 11:35 | 36.94563 | 126.62338 | 15013 ft | 418 kts | 179° |
| 2026-05-05 11:36 | 36.91643 | 126.62376 | 15598 ft | 421 kts | 179° |
| 2026-05-05 11:36 | 36.88702 | 126.62429 | 16185 ft | 425 kts | 179° |
| 2026-05-05 11:36 | 36.85738 | 126.62415 | 16750 ft | 428 kts | 180° |
| 2026-05-05 11:36 | 36.82744 | 126.62295 | 17302 ft | 432 kts | 182° |
| 2026-05-05 11:37 | 36.79732 | 126.62103 | 17841 ft | 435 kts | 182° |
| 2026-05-05 11:37 | 36.76708 | 126.61815 | 18038 ft | 437 kts | 186° |
| 2026-05-05 11:37 | 36.73729 | 126.61338 | 18077 ft | 436 kts | 187° |
| 2026-05-05 11:37 | 36.70727 | 126.60797 | 18076 ft | 436 kts | 188° |
| 2026-05-05 11:38 | 36.67684 | 126.60209 | 18187 ft | 439 kts | 188° |
| 2026-05-05 11:38 | 36.64700 | 126.59620 | 18711 ft | 441 kts | 188° |
| 2026-05-05 11:38 | 36.61659 | 126.59030 | 19192 ft | 444 kts | 188° |
| 2026-05-05 11:38 | 36.58598 | 126.58447 | 19665 ft | 446 kts | 188° |
| 2026-05-05 11:39 | 36.55521 | 126.57872 | 20138 ft | 449 kts | 188° |
| 2026-05-05 11:39 | 36.52426 | 126.57306 | 20607 ft | 451 kts | 188° |
| 2026-05-05 11:39 | 36.49308 | 126.56739 | 21067 ft | 454 kts | 188° |
| 2026-05-05 11:39 | 36.46177 | 126.56162 | 21522 ft | 456 kts | 188° |
| 2026-05-05 11:40 | 36.43030 | 126.55579 | 21964 ft | 459 kts | 188° |
| 2026-05-05 11:40 | 36.39859 | 126.54993 | 22394 ft | 461 kts | 188° |
| 2026-05-05 11:40 | 36.36680 | 126.54408 | 22816 ft | 464 kts | 188° |
| 2026-05-05 11:40 | 36.33474 | 126.53822 | 23231 ft | 467 kts | 188° |
| 2026-05-05 11:41 | 36.30252 | 126.53233 | 23646 ft | 469 kts | 188° |
| 2026-05-05 11:41 | 36.27008 | 126.52640 | 23994 ft | 472 kts | 189° |
| 2026-05-05 11:41 | 36.23749 | 126.52042 | 24371 ft | 474 kts | 189° |
| 2026-05-05 11:41 | 36.20481 | 126.51442 | 24734 ft | 476 kts | 189° |
| 2026-05-05 11:42 | 36.17216 | 126.50839 | 25224 ft | 474 kts | 189° |
| 2026-05-05 11:42 | 36.13959 | 126.50238 | 25741 ft | 472 kts | 189° |
| 2026-05-05 11:42 | 36.10716 | 126.49643 | 26251 ft | 470 kts | 189° |
| 2026-05-05 11:42 | 36.07488 | 126.49056 | 26759 ft | 469 kts | 189° |
| 2026-05-05 11:43 | 36.04261 | 126.48470 | 27265 ft | 467 kts | 189° |
| 2026-05-05 11:43 | 36.01089 | 126.47893 | 27763 ft | 466 kts | 190° |
| 2026-05-05 11:43 | 35.97891 | 126.47310 | 28275 ft | 465 kts | 190° |
| 2026-05-05 11:43 | 35.94694 | 126.46728 | 28772 ft | 463 kts | 190° |
| 2026-05-05 11:44 | 35.91513 | 126.46150 | 29282 ft | 462 kts | 190° |
| 2026-05-05 11:44 | 35.88340 | 126.45571 | 29795 ft | 460 kts | 191° |
| 2026-05-05 11:44 | 35.85179 | 126.44993 | 30282 ft | 459 kts | 191° |
| 2026-05-05 11:44 | 35.82022 | 126.44419 | 30707 ft | 458 kts | 191° |
| 2026-05-05 11:45 | 35.78874 | 126.43847 | 31132 ft | 456 kts | 191° |
| 2026-05-05 11:45 | 35.75736 | 126.43278 | 31557 ft | 455 kts | 191° |
| 2026-05-05 11:45 | 35.72612 | 126.42710 | 31955 ft | 454 kts | 191° |
| 2026-05-05 11:45 | 35.69481 | 126.42142 | 32084 ft | 455 kts | 191° |
| 2026-05-05 11:46 | 35.66329 | 126.41573 | 32109 ft | 459 kts | 191° |
| 2026-05-05 11:46 | 35.60008 | 126.40429 | 32112 ft | 460 kts | 191° |
| 2026-05-05 11:47 | 35.53685 | 126.39291 | 32119 ft | 459 kts | 191° |
| 2026-05-05 11:47 | 35.47369 | 126.38155 | 32122 ft | 459 kts | 191° |
| 2026-05-05 11:48 | 35.37876 | 126.36454 | 32122 ft | 459 kts | 191° |
| 2026-05-05 11:48 | 35.31842 | 126.35370 | 32124 ft | 459 kts | 191° |